Time;durP1;ratioP1;P1;durP2;ratioP2;P2;SDS_P1;SDS_P2;PMS_P1;PMS_P2;Temp;Humidity;BMP_temperature;BMP_pressure;BME280_temperature;BME280_humidity;BME280_pressure;Samples;Min_cycle;Max_cycle;Signal;HPM_P1;HPM_P2
2020/12/23 00:00:45;;;;;;;3.47;3.17;;;8.80;99.90;;;;;;5065808;28;20206;-57
2020/12/23 00:03:11;;;;;;;4.97;3.33;;;8.80;99.90;;;;;;5066666;28;20174;-59
2020/12/23 00:05:37;;;;;;;5.63;3.60;;;8.80;99.90;;;;;;5065518;28;20305;-60
2020/12/23 00:08:02;;;;;;;5.40;3.70;;;8.70;99.90;;;;;;5066695;28;20197;-61
2020/12/23 00:10:28;;;;;;;8.30;3.63;;;8.70;99.90;;;;;;5056997;28;20471;-57
2020/12/23 00:12:54;;;;;;;4.10;3.40;;;8.60;99.90;;;;;;5061216;28;20194;-58
2020/12/23 00:15:19;;;;;;;6.50;3.70;;;8.60;99.90;;;;;;5067036;28;20202;-57
2020/12/23 00:17:47;;;;;;;5.60;4.13;;;8.60;99.90;;;;;;5062752;28;20209;-60
2020/12/23 00:20:13;;;;;;;4.00;3.27;;;8.60;99.90;;;;;;5067822;28;20301;-58
2020/12/23 00:22:39;;;;;;;6.27;4.23;;;8.50;99.90;;;;;;5066000;28;20858;-59
2020/12/23 00:25:05;;;;;;;7.63;4.13;;;8.40;99.90;;;;;;5065796;28;20758;-58
2020/12/23 00:27:31;;;;;;;6.37;4.53;;;8.40;99.90;;;;;;5068697;28;20745;-56
2020/12/23 00:29:56;;;;;;;5.20;4.23;;;8.40;99.90;;;;;;5068573;28;20472;-56
2020/12/23 00:32:28;;;;;;;6.90;4.10;;;8.40;99.90;;;;;;5065516;28;20182;-57
2020/12/23 00:34:53;;;;;;;4.63;3.90;;;8.40;99.90;;;;;;5064438;28;20713;-58
2020/12/23 00:37:19;;;;;;;4.93;4.00;;;8.40;99.90;;;;;;5067786;28;20424;-57
2020/12/23 00:39:45;;;;;;;6.07;3.80;;;8.40;99.90;;;;;;5067400;28;20199;-58
2020/12/23 00:42:10;;;;;;;6.33;3.77;;;8.40;99.90;;;;;;5061140;28;20195;-56
2020/12/23 00:44:36;;;;;;;4.20;3.47;;;8.40;99.90;;;;;;5059756;28;20471;-59
2020/12/23 00:47:02;;;;;;;4.67;3.77;;;8.40;99.90;;;;;;5069048;28;20222;-58
2020/12/23 00:49:28;;;;;;;10.33;4.10;;;8.50;99.90;;;;;;5070847;28;20494;-59
2020/12/23 00:51:53;;;;;;;4.10;3.70;;;8.50;99.90;;;;;;5062323;28;20175;-59
2020/12/23 00:54:19;;;;;;;6.10;4.17;;;8.50;99.90;;;;;;5074665;28;20206;-58
2020/12/23 00:56:44;;;;;;;3.73;3.23;;;8.50;99.90;;;;;;5067234;28;20277;-58
2020/12/23 00:59:10;;;;;;;6.03;4.40;;;8.50;99.90;;;;;;5069401;28;20273;-58
2020/12/23 01:01:36;;;;;;;6.33;4.50;;;8.50;99.90;;;;;;5070787;28;20213;-58
2020/12/23 01:04:02;;;;;;;5.50;3.90;;;8.50;99.90;;;;;;5070175;28;20660;-58
2020/12/23 01:06:28;;;;;;;10.40;4.00;;;8.50;99.90;;;;;;5071344;28;20457;-60
2020/12/23 01:08:54;;;;;;;6.30;3.77;;;8.50;99.90;;;;;;5057738;28;20524;-59
2020/12/23 01:11:19;;;;;;;4.57;4.17;;;8.50;99.90;;;;;;5063917;28;20269;-60
2020/12/23 01:13:45;;;;;;;6.17;4.00;;;8.50;99.90;;;;;;5070073;28;20178;-58
2020/12/23 01:16:10;;;;;;;10.93;3.60;;;8.50;99.90;;;;;;5067702;28;20211;-59
2020/12/23 01:18:37;;;;;;;6.37;4.17;;;8.50;99.90;;;;;;5069100;28;20190;-58
2020/12/23 01:21:02;;;;;;;6.33;3.97;;;8.50;99.90;;;;;;5066422;28;20221;-57
2020/12/23 01:23:28;;;;;;;6.27;4.60;;;8.50;99.90;;;;;;5065588;28;20436;-59
2020/12/23 01:25:55;;;;;;;4.37;3.97;;;8.50;99.90;;;;;;5069575;28;20694;-57
2020/12/23 01:28:21;;;;;;;6.20;4.13;;;8.50;99.90;;;;;;5070055;28;20213;-60
2020/12/23 01:30:46;;;;;;;7.40;4.63;;;8.50;99.90;;;;;;5069867;28;20490;-58
2020/12/23 01:33:12;;;;;;;4.80;4.20;;;8.50;99.90;;;;;;5047157;28;20797;-60
2020/12/23 01:35:38;;;;;;;5.60;4.60;;;8.50;99.90;;;;;;5070385;28;20324;-58
2020/12/23 01:38:04;;;;;;;7.47;4.50;;;8.40;99.90;;;;;;5048542;28;20285;-57
2020/12/23 01:40:30;;;;;;;4.53;4.10;;;8.50;99.90;;;;;;5039661;28;20360;-59
2020/12/23 01:42:55;;;;;;;5.83;4.70;;;8.50;99.90;;;;;;5062897;28;20421;-58
2020/12/23 01:45:21;;;;;;;8.30;5.27;;;8.50;99.90;;;;;;5070920;28;20464;-59
2020/12/23 01:47:47;;;;;;;6.80;4.23;;;8.50;99.90;;;;;;5070779;28;20201;-58
2020/12/23 01:50:13;;;;;;;10.60;7.83;;;8.60;99.90;;;;;;5065575;28;20183;-58
2020/12/23 01:52:39;;;;;;;44.57;21.97;;;8.60;99.90;;;;;;5064340;28;20181;-59
2020/12/23 01:55:11;;;;;;;6.23;4.37;;;8.60;99.90;;;;;;5068675;28;20432;-60
2020/12/23 01:57:36;;;;;;;4.90;4.27;;;8.60;99.90;;;;;;5069590;28;20217;-59
2020/12/23 02:00:06;;;;;;;5.63;4.70;;;8.60;99.90;;;;;;5065317;28;20525;-58
2020/12/23 02:02:34;;;;;;;4.40;3.80;;;8.60;99.90;;;;;;5067181;28;20553;-58
2020/12/23 02:05:03;;;;;;;7.20;4.10;;;8.60;99.90;;;;;;5069745;28;20926;-59
2020/12/23 02:07:29;;;;;;;3.17;2.87;;;8.50;99.90;;;;;;5065938;28;20428;-58
2020/12/23 02:09:57;;;;;;;3.67;3.33;;;8.50;99.90;;;;;;5058055;28;20425;-58
2020/12/23 02:12:23;;;;;;;3.03;2.73;;;8.50;99.90;;;;;;5066037;28;20439;-58
2020/12/23 02:14:54;;;;;;;3.70;3.00;;;8.40;99.90;;;;;;5068855;28;20515;-58
2020/12/23 02:17:20;;;;;;;5.10;3.43;;;8.40;99.90;;;;;;5058806;28;20432;-59
2020/12/23 02:19:49;;;;;;;5.17;3.40;;;8.40;99.90;;;;;;5068428;28;20452;-59
2020/12/23 02:22:20;;;;;;;8.77;4.10;;;8.30;99.90;;;;;;5065128;28;20432;-59
2020/12/23 02:24:50;;;;;;;4.37;3.83;;;8.40;99.90;;;;;;5069838;28;20453;-60
2020/12/23 02:27:17;;;;;;;3.93;3.50;;;8.40;99.90;;;;;;5069165;28;20829;-57
2020/12/23 02:29:44;;;;;;;5.43;3.83;;;8.40;99.90;;;;;;5063689;28;20449;-57
2020/12/23 02:32:11;;;;;;;5.23;3.70;;;8.30;99.90;;;;;;5062546;28;20490;-58
2020/12/23 02:34:37;;;;;;;4.23;3.83;;;8.40;99.90;;;;;;5063411;28;20444;-56
2020/12/23 02:37:05;;;;;;;5.83;3.90;;;8.40;99.90;;;;;;5070408;28;21068;-57
2020/12/23 02:39:31;;;;;;;3.43;3.13;;;8.40;99.90;;;;;;5066233;28;20468;-58
2020/12/23 02:41:58;;;;;;;6.53;4.03;;;8.40;99.90;;;;;;5067806;28;20421;-57
2020/12/23 02:44:24;;;;;;;7.57;4.23;;;8.30;99.90;;;;;;5046349;28;20465;-59
2020/12/23 02:47:01;;;;;;;5.20;3.90;;;8.30;99.90;;;;;;5068388;28;20495;-59
2020/12/23 02:49:27;;;;;;;4.33;3.70;;;8.30;99.90;;;;;;5064533;28;20436;-57
2020/12/23 02:51:53;;;;;;;4.30;3.57;;;8.20;99.90;;;;;;5066009;28;20792;-57
2020/12/23 02:54:19;;;;;;;6.67;4.10;;;8.20;99.90;;;;;;5060096;28;20435;-60
2020/12/23 02:56:46;;;;;;;5.50;4.33;;;8.20;99.90;;;;;;5065869;28;21037;-57
2020/12/23 02:59:12;;;;;;;5.07;4.20;;;8.20;99.90;;;;;;5067628;28;20452;-58
2020/12/23 03:01:38;;;;;;;8.13;4.10;;;8.30;99.90;;;;;;5067668;28;20480;-58
2020/12/23 03:04:05;;;;;;;4.63;4.13;;;8.30;99.90;;;;;;5067183;28;20440;-59
2020/12/23 03:06:31;;;;;;;7.13;4.30;;;8.30;99.90;;;;;;5056648;28;20448;-59
2020/12/23 03:08:57;;;;;;;5.93;4.77;;;8.30;99.90;;;;;;5045214;28;20433;-59
2020/12/23 03:11:22;;;;;;;6.20;4.73;;;8.40;99.90;;;;;;5063713;28;20458;-60
2020/12/23 03:13:48;;;;;;;5.30;4.33;;;8.40;99.90;;;;;;5066163;28;20564;-57
2020/12/23 03:16:14;;;;;;;8.90;5.63;;;8.40;99.90;;;;;;5063118;28;20191;-58
2020/12/23 03:18:40;;;;;;;9.27;6.57;;;8.40;99.90;;;;;;5066662;28;20231;-58
2020/12/23 03:21:07;;;;;;;10.13;6.70;;;8.40;99.90;;;;;;5067320;28;20211;-57
2020/12/23 03:23:32;;;;;;;10.00;6.87;;;8.50;99.90;;;;;;5059226;28;20443;-60
2020/12/23 03:25:58;;;;;;;10.20;6.90;;;8.50;99.90;;;;;;5068290;28;20841;-56
2020/12/23 03:28:24;;;;;;;10.50;6.80;;;8.60;99.90;;;;;;5108886;22;20223;-63
2020/12/23 03:30:50;;;;;;;11.67;7.03;;;8.60;99.90;;;;;;5039127;28;20276;-62
2020/12/23 03:33:15;;;;;;;8.83;5.93;;;8.60;99.90;;;;;;5043121;28;20920;-63
2020/12/23 03:35:41;;;;;;;9.00;6.47;;;8.60;99.90;;;;;;5049160;28;20195;-63
2020/12/23 03:38:06;;;;;;;8.83;6.80;;;8.60;99.90;;;;;;5036030;28;20233;-64
2020/12/23 03:40:32;;;;;;;8.60;6.20;;;8.60;99.90;;;;;;5046711;28;20356;-63
2020/12/23 03:42:58;;;;;;;9.60;5.63;;;8.60;99.90;;;;;;5024089;28;20180;-62
2020/12/23 03:45:23;;;;;;;10.70;5.60;;;8.60;99.90;;;;;;5041616;28;20194;-63
2020/12/23 03:47:49;;;;;;;6.87;5.40;;;8.60;99.90;;;;;;5029400;28;20265;-65
2020/12/23 03:50:14;;;;;;;6.23;5.03;;;8.60;99.90;;;;;;5022606;28;20245;-62
2020/12/23 03:52:40;;;;;;;10.27;5.40;;;8.50;99.90;;;;;;5037190;28;20201;-61
2020/12/23 03:55:07;;;;;;;16.80;6.50;;;8.50;99.90;;;;;;5036589;28;20171;-63
2020/12/23 03:57:33;;;;;;;8.37;5.83;;;8.50;99.90;;;;;;5023540;28;20245;-65
2020/12/23 03:59:59;;;;;;;6.70;5.30;;;8.50;99.90;;;;;;5022477;28;20478;-64
2020/12/23 04:02:25;;;;;;;9.67;6.33;;;8.50;99.90;;;;;;5011899;28;20197;-62
2020/12/23 04:04:50;;;;;;;16.40;7.00;;;8.40;99.90;;;;;;5044765;28;20225;-63
2020/12/23 04:07:16;;;;;;;8.30;6.10;;;8.40;99.90;;;;;;5020591;28;20207;-66
2020/12/23 04:09:41;;;;;;;9.80;6.70;;;8.50;99.90;;;;;;5040815;28;20179;-64
2020/12/23 04:12:07;;;;;;;9.10;6.90;;;8.40;99.90;;;;;;5033176;28;20666;-61
2020/12/23 04:14:33;;;;;;;8.80;6.30;;;8.40;99.90;;;;;;5037995;28;20267;-63
2020/12/23 04:16:58;;;;;;;11.50;7.00;;;8.40;99.90;;;;;;5038827;28;20259;-63
2020/12/23 04:19:24;;;;;;;7.43;5.90;;;8.40;99.90;;;;;;5012067;28;20290;-63
2020/12/23 04:21:50;;;;;;;9.20;6.30;;;8.40;99.90;;;;;;5022120;28;20192;-63
2020/12/23 04:24:15;;;;;;;9.60;6.97;;;8.40;99.90;;;;;;5019665;28;20449;-62
2020/12/23 04:26:41;;;;;;;10.13;7.10;;;8.40;99.90;;;;;;5043587;28;20199;-62
2020/12/23 04:29:07;;;;;;;8.57;6.43;;;8.40;99.90;;;;;;5043796;28;20515;-62
2020/12/23 04:31:33;;;;;;;13.50;6.93;;;8.40;99.90;;;;;;5039083;28;20205;-63
2020/12/23 04:33:59;;;;;;;10.70;7.53;;;8.40;99.90;;;;;;5045909;28;20190;-62
2020/12/23 04:36:24;;;;;;;13.20;7.20;;;8.30;99.90;;;;;;5069590;28;20482;-63
2020/12/23 04:38:50;;;;;;;8.57;6.30;;;8.30;99.90;;;;;;5052127;28;20563;-66
2020/12/23 04:41:16;;;;;;;7.70;6.10;;;8.30;99.90;;;;;;5036827;28;20709;-62
2020/12/23 04:43:41;;;;;;;8.73;6.57;;;8.30;99.90;;;;;;5033488;28;20191;-66
2020/12/23 04:46:10;;;;;;;9.70;6.67;;;8.30;99.90;;;;;;5046559;28;20460;-62
2020/12/23 04:48:38;;;;;;;9.40;6.43;;;8.30;99.90;;;;;;5045804;28;20203;-65
2020/12/23 04:51:04;;;;;;;11.17;6.83;;;8.20;99.90;;;;;;5021844;28;20450;-61
2020/12/23 04:53:31;;;;;;;10.63;7.10;;;8.20;99.90;;;;;;5027051;28;20802;-62
2020/12/23 04:55:56;;;;;;;14.23;7.30;;;8.30;99.90;;;;;;5047538;28;20179;-66
2020/12/23 04:58:23;;;;;;;13.03;7.90;;;8.30;99.90;;;;;;5038744;28;20459;-63
2020/12/23 05:00:49;;;;;;;9.60;6.67;;;8.30;99.90;;;;;;5041770;28;20470;-61
2020/12/23 05:03:15;;;;;;;9.57;6.57;;;8.20;99.90;;;;;;5048648;28;20460;-62
2020/12/23 05:05:41;;;;;;;9.83;7.40;;;8.20;99.90;;;;;;5022238;28;20437;-63
2020/12/23 05:08:07;;;;;;;11.87;8.57;;;8.20;99.90;;;;;;5052744;28;20274;-63
2020/12/23 05:10:33;;;;;;;13.10;7.90;;;8.20;99.90;;;;;;5044591;28;20540;-67
2020/12/23 05:12:59;;;;;;;11.50;8.10;;;8.20;99.90;;;;;;5042883;28;20704;-66
2020/12/23 05:15:24;;;;;;;11.80;7.40;;;8.20;99.90;;;;;;5016439;28;20282;-63
2020/12/23 05:17:51;;;;;;;10.30;7.60;;;8.20;99.90;;;;;;5017220;28;20454;-62
2020/12/23 05:20:17;;;;;;;9.80;7.40;;;8.20;99.90;;;;;;5047802;28;20232;-62
2020/12/23 05:22:47;;;;;;;13.67;8.60;;;8.20;99.90;;;;;;5030575;28;20623;-62
2020/12/23 05:25:17;;;;;;;12.87;7.87;;;8.20;99.90;;;;;;5035663;28;20195;-62
2020/12/23 05:27:42;;;;;;;11.47;7.90;;;8.10;99.90;;;;;;5045290;28;20450;-62
2020/12/23 05:30:10;;;;;;;13.00;8.37;;;8.10;99.90;;;;;;5036773;28;20875;-63
2020/12/23 05:32:38;;;;;;;15.40;8.73;;;8.10;99.90;;;;;;5041840;28;20592;-62
2020/12/23 05:35:04;;;;;;;15.10;8.70;;;8.10;99.90;;;;;;5031934;28;20442;-62
2020/12/23 05:37:31;;;;;;;14.17;8.57;;;8.10;99.90;;;;;;5037874;28;20458;-62
2020/12/23 05:39:56;;;;;;;11.30;8.20;;;8.10;99.90;;;;;;5021971;28;20816;-64
2020/12/23 05:42:23;;;;;;;13.70;8.87;;;8.10;99.90;;;;;;5022472;28;20592;-62
2020/12/23 05:44:55;;;;;;;13.07;8.43;;;8.00;99.90;;;;;;5025763;28;20184;-62
2020/12/23 05:47:26;;;;;;;13.03;8.60;;;8.00;99.90;;;;;;5051970;28;20970;-65
2020/12/23 05:49:53;;;;;;;14.00;8.60;;;8.00;99.90;;;;;;5041674;28;20437;-62
2020/12/23 05:52:23;;;;;;;13.07;8.50;;;8.00;99.90;;;;;;5048412;28;20445;-61
2020/12/23 05:54:53;;;;;;;11.37;7.63;;;8.00;99.90;;;;;;5039628;28;20468;-62
2020/12/23 05:57:20;;;;;;;13.67;8.53;;;8.00;99.90;;;;;;5046136;28;20823;-62
2020/12/23 05:59:46;;;;;;;14.63;9.20;;;8.00;99.90;;;;;;5038973;28;20465;-62
2020/12/23 06:02:13;;;;;;;11.53;8.73;;;7.90;99.90;;;;;;5045703;28;20429;-63
2020/12/23 06:04:43;;;;;;;12.77;7.83;;;8.00;99.90;;;;;;5023097;28;20946;-62
2020/12/23 06:07:10;;;;;;;15.40;8.87;;;8.00;99.90;;;;;;5048015;28;20456;-64
2020/12/23 06:09:37;;;;;;;16.13;8.67;;;8.00;99.90;;;;;;5041641;28;20497;-65
2020/12/23 06:12:24;;;;;;;15.30;9.00;;;8.00;99.90;;;;;;5037737;28;20885;-61
2020/12/23 06:14:55;;;;;;;27.47;9.00;;;8.00;99.90;;;;;;5037126;28;20441;-63
2020/12/23 06:17:22;;;;;;;15.53;9.53;;;8.00;99.90;;;;;;5025982;28;20457;-61
2020/12/23 06:19:58;;;;;;;12.10;9.37;;;8.00;99.90;;;;;;5020288;28;20556;-62
2020/12/23 06:22:27;;;;;;;10.90;8.47;;;8.00;99.90;;;;;;5027267;28;20426;-62
2020/12/23 06:24:53;;;;;;;15.90;9.93;;;8.00;99.90;;;;;;5035611;28;20438;-62
2020/12/23 06:27:19;;;;;;;12.97;8.37;;;8.00;99.90;;;;;;5013567;28;20539;-62
2020/12/23 06:29:47;;;;;;;13.67;8.80;;;8.00;99.90;;;;;;5043902;28;20175;-62
2020/12/23 06:32:22;;;;;;;19.63;8.90;;;8.00;99.90;;;;;;5043724;28;20421;-62
2020/12/23 06:34:58;;;;;;;14.30;8.67;;;8.00;99.90;;;;;;5018129;28;20450;-62
2020/12/23 06:37:29;;;;;;;13.63;8.87;;;8.00;99.90;;;;;;5045558;28;21028;-62
2020/12/23 06:39:55;;;;;;;11.30;7.80;;;8.00;99.90;;;;;;5025633;28;20561;-64
2020/12/23 06:42:20;;;;;;;13.57;7.77;;;8.00;99.90;;;;;;5042028;28;20525;-63
2020/12/23 06:44:58;;;;;;;11.57;7.80;;;8.00;99.90;;;;;;5039345;28;20426;-62
2020/12/23 06:47:26;;;;;;;14.83;7.73;;;8.00;99.90;;;;;;5046374;28;20256;-62
2020/12/23 06:50:16;;;;;;;12.27;8.60;;;8.00;99.90;;;;;;5044816;28;20437;-63
2020/12/23 06:52:44;;;;;;;11.77;7.47;;;8.00;99.90;;;;;;5039695;28;20445;-61
2020/12/23 06:55:14;;;;;;;10.27;6.83;;;7.90;99.90;;;;;;5043823;28;21027;-61
2020/12/23 06:57:39;;;;;;;9.77;6.90;;;7.90;99.90;;;;;;5044206;28;20528;-60
2020/12/23 07:00:07;;;;;;;11.70;7.30;;;7.90;99.90;;;;;;5050356;28;20967;-62
2020/12/23 07:02:35;;;;;;;10.53;6.97;;;7.90;99.90;;;;;;5039218;28;20677;-61
2020/12/23 07:05:01;;;;;;;9.50;7.30;;;7.90;99.90;;;;;;5046585;28;20417;-63
2020/12/23 07:07:38;;;;;;;13.87;7.43;;;7.90;99.90;;;;;;5022204;28;20828;-64
2020/12/23 07:10:22;;;;;;;13.33;7.43;;;7.90;99.90;;;;;;5041039;28;20238;-62
2020/12/23 07:12:59;;;;;;;9.93;6.70;;;7.90;99.90;;;;;;5037654;28;20433;-62
2020/12/23 07:15:28;;;;;;;10.90;7.70;;;7.90;99.90;;;;;;5020391;28;20465;-65
2020/12/23 07:17:57;;;;;;;13.93;7.33;;;7.90;99.90;;;;;;5039807;28;20457;-62
2020/12/23 07:20:25;;;;;;;10.17;7.33;;;7.90;99.90;;;;;;5039001;28;20450;-61
2020/12/23 07:22:53;;;;;;;8.83;6.60;;;7.90;99.90;;;;;;5037500;28;20439;-64
2020/12/23 07:25:21;;;;;;;11.10;6.57;;;7.90;99.90;;;;;;5040190;28;20453;-62
2020/12/23 07:27:47;;;;;;;9.70;6.80;;;7.90;99.90;;;;;;5044077;28;20978;-62
2020/12/23 07:30:13;;;;;;;10.83;7.30;;;7.90;99.90;;;;;;5036357;28;20440;-61
2020/12/23 07:32:42;;;;;;;9.30;6.67;;;7.90;99.90;;;;;;5040615;28;20198;-62
2020/12/23 07:35:08;;;;;;;11.70;7.20;;;7.90;99.90;;;;;;5045395;28;20907;-64
2020/12/23 07:37:40;;;;;;;13.77;7.80;;;7.80;99.90;;;;;;5024734;28;20485;-62
2020/12/23 07:40:16;;;;;;;9.63;6.40;;;7.80;99.90;;;;;;5014528;28;20590;-62
2020/12/23 07:42:49;;;;;;;6.53;4.80;;;7.90;99.90;;;;;;5052848;28;20439;-64
2020/12/23 07:45:16;;;;;;;5.73;4.53;;;7.90;99.90;;;;;;5042600;28;20438;-62
2020/12/23 07:47:51;;;;;;;6.70;4.90;;;7.90;99.90;;;;;;5036746;28;20438;-63
2020/12/23 07:50:17;;;;;;;7.00;4.97;;;7.80;99.90;;;;;;5034333;28;20460;-62
2020/12/23 07:52:42;;;;;;;6.80;5.10;;;7.80;99.90;;;;;;5021058;28;21047;-61
2020/12/23 07:55:12;;;;;;;7.40;4.70;;;7.80;99.90;;;;;;5034999;28;20226;-63
2020/12/23 07:57:38;;;;;;;8.73;5.30;;;7.80;99.90;;;;;;5044350;28;20203;-62
2020/12/23 08:00:09;;;;;;;7.73;5.93;;;7.80;99.90;;;;;;5017862;28;20511;-62
2020/12/23 08:02:35;;;;;;;6.63;5.10;;;7.90;99.90;;;;;;5018726;28;20440;-63
2020/12/23 08:05:01;;;;;;;5.30;4.60;;;7.90;99.90;;;;;;5048079;28;20434;-64
2020/12/23 08:07:27;;;;;;;5.97;4.57;;;7.90;99.90;;;;;;5039931;28;20276;-62
2020/12/23 08:09:53;;;;;;;7.47;5.03;;;7.90;99.90;;;;;;5050948;28;20508;-62
2020/12/23 08:12:19;;;;;;;10.80;6.33;;;7.90;99.90;;;;;;5033668;28;20532;-64
2020/12/23 08:14:46;;;;;;;10.53;6.10;;;7.90;99.90;;;;;;5052020;28;20457;-61
2020/12/23 08:17:24;;;;;;;9.90;6.53;;;7.90;99.90;;;;;;5043811;28;21034;-60
2020/12/23 08:20:08;;;;;;;16.67;9.03;;;7.90;99.90;;;;;;5028570;28;20457;-64
2020/12/23 08:22:35;;;;;;;16.13;10.70;;;7.90;99.90;;;;;;5034864;28;20442;-63
2020/12/23 08:25:13;;;;;;;16.17;10.20;;;7.90;99.90;;;;;;5045371;28;20429;-65
2020/12/23 08:27:44;;;;;;;18.77;11.13;;;8.00;99.90;;;;;;5035842;28;20457;-65
2020/12/23 08:30:21;;;;;;;17.30;9.97;;;8.00;99.90;;;;;;5037375;28;20434;-62
2020/12/23 08:32:56;;;;;;;15.10;10.00;;;8.00;99.90;;;;;;5040355;28;20429;-60
2020/12/23 08:35:28;;;;;;;17.13;9.77;;;8.00;99.90;;;;;;5016442;28;20508;-63
2020/12/23 08:37:54;;;;;;;16.07;9.70;;;8.00;99.90;;;;;;5036694;28;20480;-62
2020/12/23 08:40:20;;;;;;;14.23;8.70;;;8.00;99.90;;;;;;5025693;28;21064;-65
2020/12/23 08:42:58;;;;;;;17.47;9.70;;;8.00;99.90;;;;;;5046684;28;20222;-62
2020/12/23 08:45:29;;;;;;;24.70;12.73;;;8.00;99.90;;;;;;5045418;28;20258;-62
2020/12/23 08:47:56;;;;;;;20.20;12.50;;;8.10;99.90;;;;;;5042303;28;20457;-62
2020/12/23 08:50:27;;;;;;;18.10;10.70;;;8.10;99.90;;;;;;5038993;28;20472;-62
2020/12/23 08:52:54;;;;;;;18.50;10.63;;;8.10;99.90;;;;;;5020454;28;20437;-62
2020/12/23 08:55:23;;;;;;;16.20;9.70;;;8.20;99.90;;;;;;5044488;28;20444;-63
2020/12/23 08:57:49;;;;;;;17.33;11.00;;;8.20;99.90;;;;;;5047236;28;20873;-62
2020/12/23 09:00:18;;;;;;;14.10;9.23;;;8.20;99.90;;;;;;5036675;28;20461;-64
2020/12/23 09:02:45;;;;;;;12.80;8.70;;;8.20;99.90;;;;;;5033512;28;20564;-62
2020/12/23 09:05:30;;;;;;;11.63;8.73;;;8.20;99.90;;;;;;5035955;28;20430;-61
2020/12/23 09:08:08;;;;;;;16.27;8.80;;;8.30;99.90;;;;;;5047944;28;20450;-61
2020/12/23 09:10:35;;;;;;;14.10;8.73;;;8.30;99.90;;;;;;5042505;28;20426;-62
2020/12/23 09:13:08;;;;;;;14.53;8.80;;;8.40;99.90;;;;;;5043810;28;20449;-62
2020/12/23 09:15:35;;;;;;;14.30;8.77;;;8.40;99.90;;;;;;5038567;28;20444;-62
2020/12/23 09:18:08;;;;;;;13.20;8.10;;;8.40;99.90;;;;;;5042269;28;20449;-62
2020/12/23 09:20:35;;;;;;;11.93;8.70;;;8.50;99.90;;;;;;5047519;28;20457;-62
2020/12/23 09:23:02;;;;;;;15.23;9.20;;;8.60;99.90;;;;;;5046446;28;20426;-62
2020/12/23 09:25:30;;;;;;;11.83;8.87;;;8.60;99.90;;;;;;5037071;28;20974;-62
2020/12/23 09:28:05;;;;;;;17.67;9.63;;;8.70;99.90;;;;;;5057817;22;20448;-58
2020/12/23 09:30:32;;;;;;;18.73;11.43;;;8.70;99.90;;;;;;5063572;28;20814;-57
2020/12/23 09:32:57;;;;;;;17.73;11.93;;;8.70;99.90;;;;;;5058985;28;20420;-57
2020/12/23 09:35:26;;;;;;;18.33;11.50;;;8.70;99.90;;;;;;5052551;28;20429;-57
2020/12/23 09:38:24;;;;;;;15.87;10.53;;;8.70;99.90;;;;;;5054568;28;20340;-61
2020/12/23 09:40:52;;;;;;;19.63;11.23;;;8.80;99.90;;;;;;5040320;28;20487;-54
2020/12/23 09:43:20;;;;;;;16.33;9.77;;;8.80;99.90;;;;;;5043996;28;20818;-56
2020/12/23 09:45:51;;;;;;;16.17;10.00;;;8.90;99.90;;;;;;5044231;28;20775;-56
2020/12/23 09:48:18;;;;;;;15.80;10.37;;;8.90;99.90;;;;;;5042835;28;20481;-52
2020/12/23 09:50:46;;;;;;;18.33;10.87;;;8.90;99.90;;;;;;5016448;28;21555;-53
2020/12/23 09:53:12;;;;;;;17.47;9.50;;;9.00;99.90;;;;;;5038862;28;20489;-57
2020/12/23 09:55:42;;;;;;;16.10;9.63;;;9.10;99.90;;;;;;5039436;28;20442;-54
2020/12/23 09:58:08;;;;;;;13.50;9.40;;;9.10;99.90;;;;;;5038794;28;20453;-56
2020/12/23 10:00:34;;;;;;;14.40;9.50;;;9.20;99.90;;;;;;5042576;28;20460;-57
2020/12/23 10:03:00;;;;;;;13.67;9.63;;;9.20;99.90;;;;;;5043427;28;20938;-57
2020/12/23 10:05:26;;;;;;;13.07;9.57;;;9.20;99.90;;;;;;5026738;28;20434;-58
2020/12/23 10:07:52;;;;;;;14.37;9.60;;;9.20;99.90;;;;;;5043272;28;20198;-57
2020/12/23 10:10:18;;;;;;;12.80;9.20;;;9.30;99.90;;;;;;5046251;28;20234;-58
2020/12/23 10:12:44;;;;;;;14.67;9.50;;;9.30;99.90;;;;;;5039406;28;20438;-57
2020/12/23 10:15:10;;;;;;;12.90;9.33;;;9.30;99.90;;;;;;5043656;28;20433;-58
2020/12/23 10:17:36;;;;;;;14.27;9.90;;;9.30;99.90;;;;;;5026778;28;20656;-56
2020/12/23 10:20:04;;;;;;;12.23;9.13;;;9.30;99.90;;;;;;5034209;28;20574;-57
2020/12/23 10:22:30;;;;;;;14.03;9.60;;;9.40;99.90;;;;;;5034412;28;20446;-57
2020/12/23 10:24:55;;;;;;;14.43;9.50;;;9.40;99.90;;;;;;5029753;28;20430;-57
2020/12/23 10:27:21;;;;;;;13.87;9.13;;;9.40;99.90;;;;;;5039590;28;20661;-56
2020/12/23 10:29:47;;;;;;;13.10;8.50;;;9.40;99.90;;;;;;5038080;28;20811;-57
2020/12/23 10:32:13;;;;;;;14.07;8.57;;;9.40;99.90;;;;;;5035727;28;20179;-56
2020/12/23 10:34:39;;;;;;;12.40;8.53;;;9.40;99.90;;;;;;5036876;28;20249;-57
2020/12/23 10:37:05;;;;;;;9.73;8.07;;;9.40;99.90;;;;;;5038242;28;20433;-58
2020/12/23 10:39:31;;;;;;;12.63;8.43;;;9.40;99.90;;;;;;5041524;28;20214;-58
2020/12/23 10:41:57;;;;;;;13.50;9.37;;;9.40;99.90;;;;;;5036779;28;20599;-58
2020/12/23 10:44:23;;;;;;;13.43;9.47;;;9.50;99.90;;;;;;5042211;28;20732;-58
2020/12/23 10:46:56;;;;;;;15.80;10.37;;;9.50;99.90;;;;;;5040754;28;20429;-62
2020/12/23 10:49:24;;;;;;;16.17;9.70;;;9.50;99.90;;;;;;5044994;28;20457;-57
2020/12/23 10:51:55;;;;;;;12.27;8.50;;;9.50;99.90;;;;;;5040691;28;20495;-60
2020/12/23 10:54:21;;;;;;;11.93;7.60;;;9.60;99.90;;;;;;5037890;28;20572;-55
2020/12/23 10:56:46;;;;;;;13.90;8.20;;;9.60;99.90;;;;;;5036027;28;20528;-56
2020/12/23 10:59:12;;;;;;;13.37;8.77;;;9.60;99.90;;;;;;5035826;28;20211;-58
2020/12/23 11:01:38;;;;;;;11.50;8.90;;;9.70;99.90;;;;;;5045727;28;20559;-57
2020/12/23 11:04:05;;;;;;;11.87;8.40;;;9.70;99.90;;;;;;5041784;28;20700;-56
2020/12/23 11:06:31;;;;;;;10.67;7.57;;;9.70;99.90;;;;;;5041246;28;20645;-56
2020/12/23 11:08:58;;;;;;;11.50;8.00;;;9.80;99.90;;;;;;5038363;28;20453;-56
2020/12/23 11:11:23;;;;;;;13.10;9.80;;;9.80;99.90;;;;;;5037646;28;20423;-56
2020/12/23 11:13:49;;;;;;;10.07;7.30;;;9.80;99.90;;;;;;5032933;28;20923;-56
2020/12/23 11:16:17;;;;;;;11.60;8.33;;;9.90;99.90;;;;;;5035376;28;20462;-56
2020/12/23 11:18:45;;;;;;;13.90;8.20;;;9.90;99.90;;;;;;5032411;28;20287;-56
2020/12/23 11:21:15;;;;;;;10.33;7.33;;;10.00;99.90;;;;;;5033619;28;21336;-57
2020/12/23 11:23:42;;;;;;;9.80;7.97;;;10.00;99.90;;;;;;5035855;28;20479;-57
2020/12/23 11:26:19;;;;;;;13.03;7.50;;;10.00;99.90;;;;;;5027534;28;20428;-55
2020/12/23 11:28:44;;;;;;;8.83;6.60;;;10.00;99.90;;;;;;5043570;28;20456;-57
2020/12/23 11:31:12;;;;;;;11.37;6.63;;;10.10;99.90;;;;;;5035555;28;20888;-56
2020/12/23 11:33:38;;;;;;;10.30;7.20;;;10.10;99.90;;;;;;5037862;28;20187;-59
2020/12/23 11:36:04;;;;;;;7.87;6.60;;;10.10;99.90;;;;;;5021346;28;20433;-59
2020/12/23 11:38:30;;;;;;;10.87;6.67;;;10.10;99.90;;;;;;5038466;28;20956;-59
2020/12/23 11:40:56;;;;;;;12.23;7.50;;;10.20;99.90;;;;;;5022692;28;20468;-58
2020/12/23 11:43:22;;;;;;;10.83;6.30;;;10.20;99.90;;;;;;5040048;28;20178;-57
2020/12/23 11:45:48;;;;;;;12.30;6.43;;;10.20;99.90;;;;;;5029006;28;20190;-58
2020/12/23 11:48:13;;;;;;;7.80;5.70;;;10.20;99.90;;;;;;5036518;28;20496;-59
2020/12/23 11:50:39;;;;;;;10.73;6.53;;;10.10;99.90;;;;;;5036135;28;20190;-58
2020/12/23 11:53:07;;;;;;;9.30;6.23;;;10.10;99.90;;;;;;5031872;28;20240;-57
2020/12/23 11:55:33;;;;;;;9.87;7.00;;;10.10;99.90;;;;;;5031897;28;20262;-56
2020/12/23 11:57:58;;;;;;;10.97;7.03;;;10.10;99.90;;;;;;5035822;28;20462;-55
2020/12/23 12:00:24;;;;;;;10.73;7.63;;;10.10;99.90;;;;;;5042086;28;20281;-61
2020/12/23 12:02:50;;;;;;;11.80;6.43;;;10.10;99.90;;;;;;5036479;28;20171;-55
2020/12/23 12:05:15;;;;;;;11.37;7.37;;;10.10;99.90;;;;;;5032696;28;20187;-58
2020/12/23 12:07:41;;;;;;;9.93;7.40;;;10.20;99.90;;;;;;5034493;28;20213;-55
2020/12/23 12:10:08;;;;;;;11.60;8.10;;;10.20;99.90;;;;;;5014753;28;20206;-55
2020/12/23 12:12:35;;;;;;;12.87;8.10;;;10.20;99.90;;;;;;5037433;28;20449;-55
2020/12/23 12:15:01;;;;;;;9.33;7.70;;;10.30;99.90;;;;;;5042570;28;20425;-54
2020/12/23 12:17:27;;;;;;;10.80;7.80;;;10.40;99.90;;;;;;5036860;28;20437;-57
2020/12/23 12:19:53;;;;;;;11.47;7.50;;;10.40;99.90;;;;;;5033477;28;20469;-56
2020/12/23 12:22:19;;;;;;;9.67;7.10;;;10.50;99.90;;;;;;5031224;28;20496;-56
2020/12/23 12:24:45;;;;;;;9.87;8.30;;;10.50;99.90;;;;;;5043484;28;20425;-56
2020/12/23 12:27:10;;;;;;;14.33;7.17;;;10.50;99.90;;;;;;5033597;28;20183;-56
2020/12/23 12:29:37;;;;;;;10.63;6.97;;;10.60;99.90;;;;;;5040562;28;20222;-57
2020/12/23 12:32:04;;;;;;;11.50;7.20;;;10.60;99.90;;;;;;5038866;28;20167;-55
2020/12/23 12:34:30;;;;;;;8.73;6.50;;;10.60;99.90;;;;;;5043120;28;20939;-57
2020/12/23 12:36:56;;;;;;;12.70;7.10;;;10.60;99.90;;;;;;5037165;28;20449;-58
2020/12/23 12:39:22;;;;;;;8.80;6.20;;;10.60;99.90;;;;;;5035140;28;20497;-59
2020/12/23 12:41:49;;;;;;;9.13;6.27;;;10.60;99.90;;;;;;5038198;28;20496;-58
2020/12/23 12:44:14;;;;;;;8.40;6.73;;;10.60;99.90;;;;;;5039221;28;20508;-56
2020/12/23 12:46:40;;;;;;;9.30;6.40;;;10.60;99.90;;;;;;5039941;28;20900;-58
2020/12/23 12:49:06;;;;;;;9.93;6.97;;;10.50;99.90;;;;;;5011465;28;20497;-60
2020/12/23 12:51:32;;;;;;;10.63;6.47;;;10.50;99.90;;;;;;5021866;28;20205;-57